Time;durP1;ratioP1;P1;durP2;ratioP2;P2;SDS_P1;SDS_P2;PMS_P1;PMS_P2;Temp;Humidity;BMP_temperature;BMP_pressure;BME280_temperature;BME280_humidity;BME280_pressure;Samples;Min_cycle;Max_cycle;Signal;HPM_P1;HPM_P2
2021/04/23 00:00:58;;;;;;;8.45;3.10;;;;;;;-0.25;67.39;96177.63;5046096;28;20111;-69
2021/04/23 00:03:29;;;;;;;7.93;3.22;;;;;;;-0.37;67.38;96184.31;5049715;28;20060;-67
2021/04/23 00:06:19;;;;;;;12.60;3.25;;;;;;;-0.40;67.66;96184.66;5050746;28;20063;-67
2021/04/23 00:08:49;;;;;;;7.22;3.50;;;;;;;-0.33;67.36;96185.53;5047000;28;20079;-68
2021/04/23 00:11:20;;;;;;;7.50;3.53;;;;;;;-0.35;67.14;96179.72;5046338;28;20053;-68
2021/04/23 00:13:46;;;;;;;7.68;3.28;;;;;;;-0.23;67.32;96180.03;5051615;28;20045;-67
2021/04/23 00:16:12;;;;;;;6.35;3.08;;;;;;;-0.24;67.89;96179.25;5047000;28;20503;-67
2021/04/23 00:18:38;;;;;;;9.10;3.70;;;;;;;-0.19;68.07;96182.09;5050312;28;20037;-68
2021/04/23 00:21:07;;;;;;;6.75;2.97;;;;;;;-0.09;66.58;96180.97;5045653;28;20460;-68
2021/04/23 00:23:33;;;;;;;10.50;3.60;;;;;;;-0.02;66.88;96179.25;5046997;28;20483;-67
2021/04/23 00:26:00;;;;;;;6.78;3.08;;;;;;;-0.11;67.14;96177.78;5046380;28;20571;-68
2021/04/23 00:28:25;;;;;;;7.22;3.38;;;;;;;-0.25;67.31;96193.16;5049524;28;20049;-68
2021/04/23 00:30:54;;;;;;;9.30;3.80;;;;;;;-0.37;67.88;96184.31;5046516;28;20437;-68
2021/04/23 00:33:22;;;;;;;16.88;3.63;;;;;;;-0.41;68.47;96183.06;5045491;28;20110;-67
2021/04/23 00:35:50;;;;;;;7.93;3.38;;;;;;;-0.39;67.83;96186.25;5045809;28;20061;-68
2021/04/23 00:38:25;;;;;;;8.82;3.60;;;;;;;-0.47;67.87;96181.22;5040909;28;20060;-68
2021/04/23 00:41:03;;;;;;;11.45;3.58;;;;;;;-0.46;67.56;96188.78;5044388;28;20063;-68
2021/04/23 00:43:32;;;;;;;9.40;3.70;;;;;;;-0.54;68.31;96184.50;5047776;28;20498;-68
2021/04/23 00:45:58;;;;;;;9.80;3.63;;;;;;;-0.62;68.41;96187.19;5046776;28;20074;-68
2021/04/23 00:48:25;;;;;;;8.98;3.42;;;;;;;-0.73;69.21;96175.56;5048917;28;20091;-68
2021/04/23 00:50:56;;;;;;;7.68;3.08;;;;;;;-0.70;68.76;96187.31;5045170;28;20068;-68
2021/04/23 00:53:27;;;;;;;9.45;3.60;;;;;;;-0.67;68.83;96183.59;5052549;28;20033;-67
2021/04/23 00:55:57;;;;;;;9.25;3.33;;;;;;;-0.70;68.62;96179.56;5049963;28;20037;-67
2021/04/23 00:58:26;;;;;;;8.60;3.67;;;;;;;-0.81;68.95;96177.44;5049600;28;20468;-68
2021/04/23 01:00:58;;;;;;;10.50;3.63;;;;;;;-0.94;69.33;96173.72;5047163;28;20507;-68
2021/04/23 01:03:25;;;;;;;6.80;3.42;;;;;;;-0.95;69.54;96184.22;5049016;28;20082;-68
2021/04/23 01:05:52;;;;;;;8.57;3.70;;;;;;;-0.91;69.64;96183.69;5047419;28;20048;-68
2021/04/23 01:08:24;;;;;;;15.45;3.78;;;;;;;-0.88;69.86;96188.53;5045145;28;20049;-68
2021/04/23 01:11:02;;;;;;;7.15;3.40;;;;;;;-0.94;69.75;96189.22;5045235;28;20405;-68
2021/04/23 01:13:31;;;;;;;9.98;3.65;;;;;;;-1.07;69.82;96189.06;5050890;28;20072;-68
2021/04/23 01:16:11;;;;;;;6.65;3.60;;;;;;;-1.13;70.30;96184.63;5044596;28;20068;-68
2021/04/23 01:18:38;;;;;;;7.53;3.42;;;;;;;-1.02;69.85;96186.75;5049072;28;20128;-68
2021/04/23 01:21:06;;;;;;;9.43;3.55;;;;;;;-1.01;69.80;96188.34;5047381;28;20453;-67
2021/04/23 01:23:33;;;;;;;10.60;3.90;;;;;;;-1.11;70.85;96188.59;5046409;28;20049;-68
2021/04/23 01:25:59;;;;;;;10.73;3.47;;;;;;;-1.00;70.80;96183.97;5045447;28;20761;-67
2021/04/23 01:28:25;;;;;;;8.68;3.65;;;;;;;-1.18;70.90;96186.91;5048440;28;20067;-68
2021/04/23 01:30:50;;;;;;;11.10;3.85;;;;;;;-1.18;71.23;96186.91;5048043;28;20135;-68
2021/04/23 01:33:16;;;;;;;11.77;3.65;;;;;;;-1.13;71.02;96189.78;5047310;28;20041;-68
2021/04/23 01:35:42;;;;;;;7.30;3.60;;;;;;;-1.11;70.75;96192.97;5044006;28;20490;-68
2021/04/23 01:38:09;;;;;;;9.52;3.58;;;;;;;-1.23;71.52;96190.84;5044730;28;20048;-69
2021/04/23 01:40:35;;;;;;;12.07;3.88;;;;;;;-1.20;71.05;96196.63;5048267;28;20486;-68
2021/04/23 01:43:00;;;;;;;10.63;3.33;;;;;;;-1.21;71.30;96198.41;5047232;28;20044;-68
2021/04/23 01:45:26;;;;;;;9.23;3.63;;;;;;;-1.25;71.22;96194.56;5048415;28;20411;-67
2021/04/23 01:47:51;;;;;;;8.18;3.20;;;;;;;-1.38;71.79;96192.59;5048630;28;20063;-68
2021/04/23 01:50:20;;;;;;;12.38;3.63;;;;;;;-1.45;72.53;96191.69;5050273;28;20053;-68
2021/04/23 01:52:47;;;;;;;9.88;3.58;;;;;;;-1.37;72.25;96198.59;5049955;28;20040;-68
2021/04/23 01:55:15;;;;;;;8.68;4.22;;;;;;;-1.34;72.13;96204.19;5046044;28;20045;-68
2021/04/23 01:57:41;;;;;;;9.07;3.33;;;;;;;-1.32;71.47;96202.25;5044231;28;20077;-67
2021/04/23 02:00:14;;;;;;;8.90;3.50;;;;;;;-1.43;72.02;96205.25;5045945;28;20417;-68
2021/04/23 02:02:40;;;;;;;9.90;3.50;;;;;;;-1.39;72.33;96209.09;5048232;28;20470;-68
2021/04/23 02:05:06;;;;;;;7.78;3.40;;;;;;;-1.40;72.54;96208.28;5050277;28;20048;-68
2021/04/23 02:07:32;;;;;;;11.07;3.60;;;;;;;-1.37;72.36;96209.69;5052137;28;20037;-68
2021/04/23 02:09:58;;;;;;;8.90;3.15;;;;;;;-1.42;72.99;96206.88;5048787;28;20056;-68
2021/04/23 02:12:24;;;;;;;11.82;3.40;;;;;;;-1.41;72.67;96214.44;5053313;28;20099;-68
2021/04/23 02:14:49;;;;;;;8.27;3.70;;;;;;;-1.48;72.63;96207.56;5050739;28;20052;-69
2021/04/23 02:17:17;;;;;;;10.52;3.97;;;;;;;-1.58;72.59;96203.44;5046955;28;20046;-68
2021/04/23 02:19:42;;;;;;;10.43;3.22;;;;;;;-1.57;73.36;96205.06;5047281;28;20600;-68
2021/04/23 02:22:08;;;;;;;7.13;3.33;;;;;;;-1.64;73.29;96199.00;5050674;28;20049;-68
2021/04/23 02:24:34;;;;;;;11.68;4.20;;;;;;;-1.67;74.02;96207.06;5048755;28;20037;-68
2021/04/23 02:27:00;;;;;;;9.32;3.55;;;;;;;-1.68;73.42;96208.06;5048197;28;20052;-68
2021/04/23 02:29:25;;;;;;;7.85;3.50;;;;;;;-1.69;73.25;96209.03;5049321;28;20404;-68
2021/04/23 02:31:54;;;;;;;8.55;3.58;;;;;;;-1.65;73.87;96207.72;5048879;28;20056;-68
2021/04/23 02:34:24;;;;;;;6.97;3.70;;;;;;;-1.60;73.22;96209.75;5053240;28;20053;-68
2021/04/23 02:36:50;;;;;;;10.88;3.47;;;;;;;-1.65;73.92;96207.72;5049824;28;20047;-68
2021/04/23 02:39:19;;;;;;;10.63;3.58;;;;;;;-1.77;73.90;96203.94;5048057;28;20463;-68
2021/04/23 02:41:47;;;;;;;10.57;3.85;;;;;;;-1.84;74.69;96203.84;5049651;28;20040;-68
2021/04/23 02:44:13;;;;;;;12.63;3.92;;;;;;;-1.81;74.57;96207.84;5052604;28;20398;-68
2021/04/23 02:46:39;;;;;;;9.98;3.22;;;;;;;-1.83;74.99;96210.59;5046368;28;20115;-68
2021/04/23 02:49:06;;;;;;;8.98;3.88;;;;;;;-1.79;74.29;96208.47;5051344;28;20037;-68
2021/04/23 02:51:35;;;;;;;8.82;3.58;;;;;;;-1.69;74.27;96211.63;5048251;28;20056;-68
2021/04/23 02:54:02;;;;;;;10.02;3.85;;;;;;;-1.74;74.06;96203.59;5053267;28;20098;-68
2021/04/23 02:56:28;;;;;;;9.73;3.72;;;;;;;-1.75;74.26;96202.00;5057277;28;20045;-68
2021/04/23 02:58:54;;;;;;;8.73;3.80;;;;;;;-1.84;75.03;96203.03;5061557;28;20051;-68
2021/04/23 03:01:25;;;;;;;7.90;3.78;;;;;;;-1.84;75.23;96203.03;5064620;28;20529;-67
2021/04/23 03:03:50;;;;;;;8.40;3.78;;;;;;;-1.86;74.90;96205.00;5060351;28;20045;-68
2021/04/23 03:06:16;;;;;;;10.82;3.92;;;;;;;-1.95;75.36;96210.22;5037826;28;20034;-68
2021/04/23 03:08:42;;;;;;;13.15;3.90;;;;;;;-2.04;75.72;96208.69;5039934;28;20053;-68
2021/04/23 03:11:14;;;;;;;11.73;4.00;;;;;;;-2.00;75.53;96209.91;5044116;28;20053;-68
2021/04/23 03:13:42;;;;;;;7.88;3.92;;;;;;;-1.92;75.48;96215.00;5060956;28;20055;-68
2021/04/23 03:16:08;;;;;;;10.95;4.10;;;;;;;-1.99;75.77;96211.53;5051733;28;20051;-68
2021/04/23 03:18:37;;;;;;;8.55;3.78;;;;;;;-1.98;75.73;96213.13;5040921;28;20057;-68
2021/04/23 03:21:05;;;;;;;8.05;3.95;;;;;;;-1.99;75.81;96206.38;5065344;28;20056;-68
2021/04/23 03:23:31;;;;;;;12.23;3.95;;;;;;;-2.01;75.76;96213.50;5052511;28;20092;-68
2021/04/23 03:26:01;;;;;;;9.80;3.80;;;;;;;-2.07;75.77;96209.00;5047309;28;20129;-68
2021/04/23 03:28:28;;;;;;;8.63;3.70;;;;;;;-2.04;76.41;96206.09;5056372;28;20500;-68
2021/04/23 03:30:53;;;;;;;8.88;3.40;;;;;;;-2.05;76.21;96207.06;5046877;28;20048;-68
2021/04/23 03:33:19;;;;;;;10.60;4.07;;;;;;;-1.99;75.64;96195.25;5035152;28;20050;-68
2021/04/23 03:35:48;;;;;;;10.95;4.40;;;;;;;-2.13;76.44;96204.53;5035370;28;20396;-68
2021/04/23 03:38:14;;;;;;;10.80;4.20;;;;;;;-2.21;76.27;96218.28;5037546;28;20107;-68
2021/04/23 03:40:41;;;;;;;6.57;3.45;;;;;;;-2.25;76.31;96216.25;5048823;28;20445;-68
2021/04/23 03:43:07;;;;;;;11.63;4.00;;;;;;;-2.22;76.27;96210.72;5055620;28;20044;-68
2021/04/23 03:45:34;;;;;;;9.88;4.10;;;;;;;-2.20;76.71;96219.09;5045733;28;20038;-68
2021/04/23 03:48:00;;;;;;;9.20;3.95;;;;;;;-2.23;76.81;96216.84;5053155;28;20055;-68
2021/04/23 03:50:28;;;;;;;10.30;4.32;;;;;;;-2.21;76.70;96220.06;5051292;28;20133;-68
2021/04/23 03:52:56;;;;;;;10.15;3.92;;;;;;;-2.13;76.13;96214.84;5046791;28;20084;-68
2021/04/23 03:55:25;;;;;;;6.93;3.80;;;;;;;-2.06;76.04;96218.34;5051455;28;20144;-69
2021/04/23 03:57:51;;;;;;;9.35;4.00;;;;;;;-2.10;76.14;96224.81;5042654;28;20044;-68
2021/04/23 04:00:22;;;;;;;14.07;4.68;;;;;;;-2.24;76.79;96233.28;5049517;28;20057;-68
2021/04/23 04:02:48;;;;;;;13.98;4.18;;;;;;;-2.32;77.07;96222.06;5050760;28;20048;-68
2021/04/23 04:05:14;;;;;;;12.48;4.32;;;;;;;-2.27;76.90;96224.94;5068191;28;20037;-68
2021/04/23 04:07:40;;;;;;;14.32;4.22;;;;;;;-2.27;76.75;96222.38;5058138;28;20047;-67
2021/04/23 04:10:08;;;;;;;10.85;4.22;;;;;;;-2.22;76.33;96231.38;5040774;28;20044;-68
2021/04/23 04:12:34;;;;;;;10.95;4.05;;;;;;;-2.30;76.93;96227.88;5045590;28;20048;-68
2021/04/23 04:14:59;;;;;;;12.40;4.45;;;;;;;-2.40;77.95;96227.25;5051204;28;20049;-68
2021/04/23 04:17:25;;;;;;;9.45;3.72;;;;;;;-2.42;77.61;96225.84;5042890;28;20053;-68
2021/04/23 04:19:50;;;;;;;10.80;4.10;;;;;;;-2.36;77.53;96231.09;5049709;28;20048;-68
2021/04/23 04:22:16;;;;;;;10.32;4.20;;;;;;;-2.38;77.51;96227.91;5050383;28;20492;-68
2021/04/23 04:24:42;;;;;;;13.23;4.45;;;;;;;-2.51;77.79;96230.25;5040292;28;20053;-68
2021/04/23 04:27:08;;;;;;;11.75;4.28;;;;;;;-2.46;77.72;96236.50;5030759;28;20041;-68
2021/04/23 04:29:34;;;;;;;11.30;5.05;;;;;;;-2.38;77.53;96243.38;5039004;28;20049;-68
2021/04/23 04:31:59;;;;;;;9.32;4.05;;;;;;;-2.34;77.18;96243.81;5055599;28;20041;-69
2021/04/23 04:34:25;;;;;;;13.48;4.40;;;;;;;-2.24;77.18;96243.59;5050981;28;20052;-68
2021/04/23 04:36:50;;;;;;;12.57;4.13;;;;;;;-2.19;77.00;96249.06;5031215;28;20076;-68
2021/04/23 04:39:16;;;;;;;13.07;4.70;;;;;;;-2.29;76.73;96252.66;5033834;28;20033;-68
2021/04/23 04:41:42;;;;;;;10.82;4.07;;;;;;;-2.20;76.65;96252.63;5045904;28;20045;-68
2021/04/23 04:44:07;;;;;;;15.52;4.80;;;;;;;-2.09;76.21;96262.53;5056730;28;20036;-68
2021/04/23 04:46:33;;;;;;;12.40;4.32;;;;;;;-2.15;76.61;96258.88;5047830;28;20506;-69
2021/04/23 04:48:59;;;;;;;9.00;4.53;;;;;;;-2.15;77.04;96263.22;5045555;28;20098;-68
2021/04/23 04:51:25;;;;;;;9.63;4.30;;;;;;;-2.05;77.17;96263.81;5063876;28;20045;-68
2021/04/23 04:53:51;;;;;;;19.50;4.68;;;;;;;-1.99;76.80;96273.44;5051933;28;20049;-68
2021/04/23 04:56:17;;;;;;;13.93;5.22;;;;;;;-2.01;77.30;96272.81;5041551;28;20513;-68
2021/04/23 04:58:43;;;;;;;12.23;5.07;;;;;;;-1.99;77.47;96278.59;5066540;28;20048;-68
2021/04/23 05:01:11;;;;;;;13.70;5.18;;;;;;;-1.97;77.61;96281.81;5037141;28;20045;-69
2021/04/23 05:03:37;;;;;;;9.95;5.10;;;;;;;-1.84;78.10;96285.59;5042867;28;20560;-68
2021/04/23 05:06:03;;;;;;;11.43;5.13;;;;;;;-1.79;77.67;96285.88;5046311;28;20053;-68
2021/04/23 05:08:29;;;;;;;11.35;5.13;;;;;;;-1.75;77.43;96294.91;5030835;28;20041;-68
2021/04/23 05:10:55;;;;;;;13.73;5.43;;;;;;;-1.61;77.29;96283.81;5036563;28;20396;-68
2021/04/23 05:13:20;;;;;;;16.00;4.88;;;;;;;-1.51;77.14;96285.34;5054249;28;20045;-68
2021/04/23 05:15:46;;;;;;;12.48;5.43;;;;;;;-1.47;77.18;96286.59;5052125;28;20426;-68
2021/04/23 05:18:11;;;;;;;11.68;5.20;;;;;;;-1.42;77.24;96284.31;5037610;28;20049;-68
2021/04/23 05:20:37;;;;;;;13.65;5.47;;;;;;;-1.41;77.21;96285.91;5045467;28;20064;-68
2021/04/23 05:23:04;;;;;;;18.17;5.93;;;;;;;-1.34;77.79;96294.56;5055782;28;20041;-68
2021/04/23 05:25:31;;;;;;;20.15;6.13;;;;;;;-1.30;78.17;96295.81;5042998;28;20042;-68
2021/04/23 05:27:57;;;;;;;11.35;5.55;;;;;;;-1.17;78.49;96302.19;5048677;28;20091;-68
2021/04/23 05:30:28;;;;;;;11.52;5.63;;;;;;;-1.14;78.31;96299.25;5067242;28;20045;-68
2021/04/23 05:32:54;;;;;;;20.63;5.78;;;;;;;-1.04;78.63;96307.53;5044890;28;20041;-68
2021/04/23 05:35:22;;;;;;;16.73;6.28;;;;;;;-0.84;78.62;96312.19;5030207;28;20053;-68
2021/04/23 05:37:49;;;;;;;15.52;5.80;;;;;;;-0.77;78.73;96313.09;5036446;28;20041;-68
2021/04/23 05:40:34;;;;;;;13.32;6.00;;;;;;;-0.73;79.07;96314.34;5049907;28;20057;-68
2021/04/23 05:43:00;;;;;;;14.82;6.05;;;;;;;-0.72;79.17;96313.34;5061658;28;20048;-68
2021/04/23 05:45:27;;;;;;;13.90;6.53;;;;;;;-0.74;79.59;96317.91;5066916;28;20041;-68
2021/04/23 05:47:53;;;;;;;22.50;7.75;;;;;;;-0.61;80.18;96319.88;5050897;28;20083;-68
2021/04/23 05:50:19;;;;;;;22.20;7.55;;;;;;;-0.55;80.26;96317.38;5051110;28;20048;-68
2021/04/23 05:52:45;;;;;;;23.58;10.27;;;;;;;-0.20;84.75;96317.59;5044056;28;20052;-68
2021/04/23 05:55:16;;;;;;;24.05;10.38;;;;;;;0.29;85.23;96328.28;5046384;28;20049;-69
2021/04/23 05:57:42;;;;;;;17.48;9.10;;;;;;;0.80;83.55;96320.34;5040341;28;20041;-68
2021/04/23 06:00:11;;;;;;;20.02;9.25;;;;;;;0.70;82.63;96319.88;5063981;28;20065;-68
2021/04/23 06:02:36;;;;;;;36.95;11.60;;;;;;;0.95;83.66;96322.06;5053885;28;20040;-68
2021/04/23 06:05:04;;;;;;;20.95;10.10;;;;;;;1.41;81.42;96321.56;5050742;28;20495;-68
2021/04/23 06:07:29;;;;;;;24.13;10.98;;;;;;;1.52;82.86;96318.44;5059180;28;20086;-68
2021/04/23 06:09:55;;;;;;;20.90;10.38;;;;;;;1.54;81.85;96329.41;5047205;28;20534;-68
2021/04/23 06:12:20;;;;;;;22.70;11.05;;;;;;;1.81;81.62;96326.97;5048505;28;20079;-68
2021/04/23 06:14:46;;;;;;;24.25;11.02;;;;;;;1.78;82.15;96332.53;5064046;28;20482;-68
2021/04/23 06:17:12;;;;;;;23.17;10.52;;;;;;;1.84;81.93;96329.16;5054631;28;20041;-69
2021/04/23 06:19:37;;;;;;;26.48;11.32;;;;;;;1.87;81.94;96333.97;5054318;28;20033;-69
2021/04/23 06:22:05;;;;;;;20.42;10.18;;;;;;;2.37;80.12;96331.13;5050192;28;20041;-69
2021/04/23 06:24:32;;;;;;;20.27;9.43;;;;;;;2.78;78.18;96331.97;5048999;28;20052;-69
2021/04/23 06:26:57;;;;;;;21.48;9.20;;;;;;;3.23;76.44;96329.56;5051882;28;20047;-69
2021/04/23 06:29:23;;;;;;;18.83;9.45;;;;;;;3.56;74.96;96333.91;5045218;28;20057;-69
2021/04/23 06:31:49;;;;;;;21.67;9.20;;;;;;;3.60;74.38;96335.06;5049979;28;20084;-69
2021/04/23 06:34:14;;;;;;;23.00;9.48;;;;;;;3.38;75.94;96338.94;5051952;28;20094;-68
2021/04/23 06:36:40;;;;;;;21.65;10.52;;;;;;;3.38;75.00;96336.34;5052329;28;20068;-68
2021/04/23 06:39:13;;;;;;;17.45;9.25;;;;;;;3.96;72.49;96331.16;5039956;28;20514;-68
2021/04/23 06:41:39;;;;;;;19.95;9.45;;;;;;;4.14;71.93;96329.69;5045615;28;20518;-68
2021/04/23 06:44:05;;;;;;;20.70;8.98;;;;;;;4.29;70.58;96332.78;5050061;28;20077;-68
2021/04/23 06:46:30;;;;;;;22.15;9.10;;;;;;;4.09;71.42;96329.50;5045583;28;20430;-68
2021/04/23 06:48:56;;;;;;;15.65;7.63;;;;;;;3.95;69.34;96331.34;5040410;28;21780;-68
2021/04/23 06:51:22;;;;;;;22.67;8.50;;;;;;;4.02;68.62;96336.53;5048672;28;20494;-68
2021/04/23 06:53:47;;;;;;;16.77;8.40;;;;;;;4.14;69.83;96334.91;5051115;28;20049;-67
2021/04/23 06:56:13;;;;;;;16.90;8.25;;;;;;;3.94;71.78;96346.19;5049505;28;20061;-68
2021/04/23 06:58:38;;;;;;;13.80;7.70;;;;;;;4.13;69.65;96343.72;5048045;28;20053;-67
2021/04/23 07:01:04;;;;;;;15.35;8.32;;;;;;;3.97;71.52;96343.16;5048632;28;20405;-68
2021/04/23 07:03:30;;;;;;;18.77;8.40;;;;;;;3.86;71.77;96349.00;5049866;28;20040;-68
2021/04/23 07:05:58;;;;;;;16.58;7.65;;;;;;;4.34;69.73;96346.00;5051305;28;20454;-68
2021/04/23 07:08:24;;;;;;;17.77;7.85;;;;;;;4.71;68.26;96349.81;5048277;28;20589;-68
2021/04/23 07:10:50;;;;;;;13.70;7.03;;;;;;;4.95;63.16;96346.41;5042770;28;20124;-68
2021/04/23 07:13:16;;;;;;;19.42;6.70;;;;;;;4.75;65.09;96340.56;5046569;28;20060;-68
2021/04/23 07:15:42;;;;;;;15.00;7.35;;;;;;;4.56;66.34;96348.28;5045869;28;20103;-69
2021/04/23 07:18:08;;;;;;;14.15;7.18;;;;;;;4.71;65.84;96352.41;5052878;28;20056;-68
2021/04/23 07:20:34;;;;;;;12.80;7.20;;;;;;;5.08;64.58;96349.94;5051628;28;20049;-68
2021/04/23 07:23:00;;;;;;;21.75;7.47;;;;;;;4.91;66.32;96355.66;5050816;28;20057;-68
2021/04/23 07:25:26;;;;;;;18.65;5.78;;;;;;;5.11;57.24;96354.72;5049450;28;20049;-68
2021/04/23 07:27:52;;;;;;;13.55;5.75;;;;;;;5.26;55.67;96357.00;5050193;28;20045;-68
2021/04/23 07:30:21;;;;;;;13.98;5.28;;;;;;;5.35;55.11;96356.50;5051338;28;20092;-68
2021/04/23 07:32:48;;;;;;;34.80;5.82;;;;;;;5.40;54.63;96352.47;5052189;28;20438;-68
2021/04/23 07:35:14;;;;;;;13.63;5.07;;;;;;;5.14;56.01;96359.50;5043946;28;20048;-68
2021/04/23 07:37:40;;;;;;;16.80;5.90;;;;;;;5.50;52.79;96360.59;5043843;28;20095;-68
2021/04/23 07:40:08;;;;;;;15.85;4.60;;;;;;;5.58;55.68;96362.94;5044794;28;20045;-68
2021/04/23 07:42:34;;;;;;;13.27;5.10;;;;;;;5.40;55.61;96362.91;5050856;28;20044;-68
2021/04/23 07:45:00;;;;;;;16.08;5.38;;;;;;;5.45;53.81;96368.28;5051412;28;20151;-68
2021/04/23 07:47:25;;;;;;;16.15;5.75;;;;;;;5.29;54.74;96357.38;5045585;28;20068;-68
2021/04/23 07:49:52;;;;;;;13.88;5.43;;;;;;;5.55;54.53;96368.59;5051023;28;20490;-68
2021/04/23 07:52:17;;;;;;;11.35;5.10;;;;;;;5.50;54.80;96363.19;5050721;28;20044;-68
2021/04/23 07:54:43;;;;;;;12.95;4.80;;;;;;;5.43;53.97;96362.47;5047711;28;20079;-68
2021/04/23 07:57:09;;;;;;;16.83;5.25;;;;;;;5.58;52.95;96368.16;5051871;28;20079;-68
2021/04/23 07:59:37;;;;;;;12.02;4.40;;;;;;;6.23;48.54;96374.72;5051153;28;20033;-68
2021/04/23 08:02:03;;;;;;;9.68;4.70;;;;;;;6.62;48.45;96367.34;5051573;28;20053;-68
2021/04/23 08:04:29;;;;;;;12.13;4.78;;;;;;;6.62;46.63;96369.19;5050439;28;20085;-68
2021/04/23 08:06:59;;;;;;;10.82;4.65;;;;;;;6.96;47.59;96369.50;5046536;28;20044;-68
2021/04/23 08:09:24;;;;;;;15.65;4.97;;;;;;;7.23;45.36;96370.69;5036930;28;20036;-68
2021/04/23 08:11:50;;;;;;;20.42;5.45;;;;;;;6.85;51.44;96368.44;5049111;28;20048;-68
2021/04/23 08:14:15;;;;;;;13.93;4.70;;;;;;;6.70;51.16;96372.28;5050116;28;20049;-68
2021/04/23 08:16:41;;;;;;;12.52;4.82;;;;;;;6.74;49.30;96365.59;5041525;28;20496;-68
2021/04/23 08:19:07;;;;;;;15.00;5.05;;;;;;;6.90;47.65;96371.19;5050485;28;20037;-68
2021/04/23 08:21:33;;;;;;;11.18;5.00;;;;;;;6.87;46.98;96372.44;5045421;28;20053;-68
2021/04/23 08:23:58;;;;;;;23.33;5.68;;;;;;;7.00;49.29;96376.69;5049393;28;20048;-68
2021/04/23 08:26:25;;;;;;;15.80;5.57;;;;;;;6.96;49.70;96374.75;5049231;28;20057;-68
2021/04/23 08:28:50;;;;;;;15.02;4.85;;;;;;;7.10;46.57;96376.91;5049800;28;20041;-68
2021/04/23 08:31:17;;;;;;;14.25;4.78;;;;;;;7.42;44.61;96381.06;5049384;28;20072;-68
2021/04/23 08:33:42;;;;;;;15.07;5.60;;;;;;;7.32;44.99;96379.00;5045318;28;20044;-68
2021/04/23 08:36:08;;;;;;;16.30;5.53;;;;;;;7.36;44.78;96369.66;5047957;28;20057;-68
2021/04/23 08:38:34;;;;;;;14.63;5.22;;;;;;;7.70;45.08;96369.91;5046085;28;20041;-68
2021/04/23 08:41:00;;;;;;;16.75;5.10;;;;;;;7.74;44.42;96371.03;5045978;28;20140;-68
2021/04/23 08:43:27;;;;;;;17.55;5.55;;;;;;;7.73;43.88;96368.59;5048053;28;20666;-68
2021/04/23 08:45:54;;;;;;;11.45;5.22;;;;;;;7.71;44.85;96366.22;5053400;28;20049;-68
2021/04/23 08:48:21;;;;;;;21.50;6.30;;;;;;;7.70;45.13;96364.66;5046850;28;20049;-68
2021/04/23 08:50:48;;;;;;;14.15;5.32;;;;;;;8.14;44.44;96370.25;5049494;28;20049;-69
2021/04/23 08:53:17;;;;;;;16.25;5.68;;;;;;;8.14;42.61;96357.13;5049682;28;20041;-70
2021/04/23 08:55:44;;;;;;;17.75;6.57;;;;;;;8.37;42.20;96357.31;5047358;28;20056;-68
2021/04/23 08:58:13;;;;;;;15.57;5.70;;;;;;;8.57;42.59;96362.16;5048693;28;20509;-68
2021/04/23 09:00:39;;;;;;;16.33;5.75;;;;;;;8.51;45.15;96363.09;5046804;28;20096;-68
2021/04/23 09:03:08;;;;;;;12.48;5.20;;;;;;;8.90;43.39;96355.38;5046335;28;20044;-69
2021/04/23 09:05:34;;;;;;;19.05;6.07;;;;;;;9.05;44.18;96355.63;5046836;28;20044;-69
2021/04/23 09:08:06;;;;;;;21.35;5.78;;;;;;;9.00;43.91;96355.53;5047996;28;20045;-70
2021/04/23 09:10:33;;;;;;;13.50;5.15;;;;;;;9.26;40.65;96358.56;5052648;28;20127;-68
2021/04/23 09:13:07;;;;;;;14.70;5.85;;;;;;;9.36;40.22;96353.47;5047578;28;20048;-67
2021/04/23 09:15:33;;;;;;;19.70;5.97;;;;;;;9.26;41.34;96354.09;5051889;28;20064;-69
2021/04/23 09:18:07;;;;;;;24.13;6.93;;;;;;;9.13;41.89;96355.22;5052585;28;20381;-68
2021/04/23 09:20:35;;;;;;;17.10;5.93;;;;;;;9.04;41.85;96356.66;5053810;28;20678;-68
2021/04/23 09:23:29;;;;;;;18.55;6.43;;;;;;;9.05;43.19;96360.06;5054236;28;20166;-68
2021/04/23 09:25:58;;;;;;;16.33;5.82;;;;;;;9.17;41.96;96353.72;5049983;28;20053;-68
2021/04/23 09:28:38;;;;;;;13.05;6.05;;;;;;;9.24;41.33;96355.38;5054108;28;20059;-68
2021/04/23 09:31:32;;;;;;;16.95;6.63;;;;;;;9.30;40.43;96354.44;5058725;28;20075;-68
2021/04/23 09:34:06;;;;;;;14.50;5.57;;;;;;;9.38;41.87;96356.66;5050689;28;20110;-69
2021/04/23 09:36:33;;;;;;;10.73;5.03;;;;;;;9.43;40.18;96356.72;5052880;28;20075;-68
2021/04/23 09:39:11;;;;;;;17.73;5.72;;;;;;;9.57;39.10;96364.25;5051238;28;20511;-69
2021/04/23 09:41:42;;;;;;;20.20;6.53;;;;;;;9.48;38.29;96364.69;5053829;28;20045;-68
2021/04/23 09:44:34;;;;;;;12.50;5.63;;;;;;;9.72;38.10;96356.59;5052790;28;20041;-69
2021/04/23 09:47:20;;;;;;;13.63;5.43;;;;;;;9.81;38.99;96355.16;5050485;28;20106;-68
2021/04/23 09:49:50;;;;;;;13.50;5.28;;;;;;;9.86;37.26;96347.31;5052892;28;20033;-68
2021/04/23 09:52:17;;;;;;;14.75;5.20;;;;;;;9.83;39.45;96347.00;5050415;28;20052;-69
2021/04/23 09:54:54;;;;;;;20.90;6.00;;;;;;;10.15;37.90;96349.75;5048059;28;20052;-68
2021/04/23 09:57:27;;;;;;;18.42;5.47;;;;;;;10.27;36.97;96356.72;5053200;28;20521;-68
2021/04/23 09:59:54;;;;;;;14.13;5.10;;;;;;;10.53;36.44;96348.09;5051000;28;20057;-69
2021/04/23 10:02:22;;;;;;;12.32;4.85;;;;;;;10.53;34.37;96340.22;5053412;28;20037;-69
2021/04/23 10:04:48;;;;;;;15.27;5.60;;;;;;;10.70;35.61;96349.81;5057306;28;20737;-69
2021/04/23 10:07:19;;;;;;;13.32;4.80;;;;;;;11.15;34.50;96340.75;5051940;28;20042;-69
2021/04/23 10:09:47;;;;;;;13.52;5.00;;;;;;;11.41;32.99;96348.81;5041859;28;20053;-69
2021/04/23 10:12:26;;;;;;;13.15;4.45;;;;;;;11.78;31.99;96342.72;5053976;28;20518;-68
2021/04/23 10:15:24;;;;;;;15.05;4.90;;;;;;;12.48;31.35;96345.09;5061692;28;20491;-68
2021/04/23 10:17:54;;;;;;;16.42;4.90;;;;;;;12.43;31.55;96342.47;5052101;28;20061;-67
2021/04/23 10:20:26;;;;;;;15.73;4.97;;;;;;;12.92;30.08;96339.34;5063745;28;20562;-69
2021/04/23 10:22:53;;;;;;;11.35;4.43;;;;;;;13.35;28.22;96336.47;5045383;28;20064;-68
2021/04/23 10:25:20;;;;;;;10.43;4.60;;;;;;;14.68;26.62;96335.22;5057635;28;20037;-69
2021/04/23 10:27:47;;;;;;;14.57;4.82;;;;;;;15.00;25.95;96335.78;5054668;28;20045;-68
2021/04/23 10:30:19;;;;;;;15.63;4.72;;;;;;;15.60;24.75;96332.84;5068474;28;20449;-69
2021/04/23 10:32:54;;;;;;;9.32;4.35;;;;;;;16.38;25.12;96330.91;5053277;28;20411;-68
2021/04/23 10:35:20;;;;;;;14.57;5.38;;;;;;;16.78;23.74;96325.31;5069074;28;20071;-68
2021/04/23 10:37:47;;;;;;;14.10;5.25;;;;;;;15.87;24.22;96336.84;5059210;28;20050;-69
2021/04/23 10:40:17;;;;;;;9.85;4.90;;;;;;;16.16;23.30;96331.47;5064706;28;20037;-68
2021/04/23 10:42:57;;;;;;;13.45;5.30;;;;;;;15.96;23.88;96340.47;5060982;28;20059;-69
2021/04/23 10:45:32;;;;;;;9.40;4.78;;;;;;;17.56;22.45;96330.19;5057163;28;20522;-69
2021/04/23 10:47:58;;;;;;;14.50;5.07;;;;;;;18.29;22.38;96320.53;5051996;28;20094;-68
2021/04/23 10:50:28;;;;;;;13.40;4.90;;;;;;;17.17;22.65;96328.72;5067658;28;20098;-69
2021/04/23 10:53:12;;;;;;;15.55;5.57;;;;;;;18.30;22.00;96321.31;5059669;28;20041;-69
2021/04/23 10:55:43;;;;;;;13.27;5.30;;;;;;;18.97;21.28;96334.00;5052117;28;20052;-69
2021/04/23 10:58:17;;;;;;;9.73;5.13;;;;;;;18.11;20.86;96330.22;5060608;28;20182;-68
2021/04/23 11:00:48;;;;;;;10.70;4.90;;;;;;;19.04;21.19;96329.00;5062063;28;20045;-68
2021/04/23 11:03:20;;;;;;;13.52;5.90;;;;;;;18.51;20.75;96314.47;5061120;28;20045;-69
2021/04/23 11:05:53;;;;;;;12.07;5.38;;;;;;;19.13;20.58;96323.72;5044488;28;20098;-69
2021/04/23 11:08:20;;;;;;;11.88;5.50;;;;;;;19.08;20.49;96323.06;5051068;28;20044;-69
2021/04/23 11:11:01;;;;;;;13.18;5.97;;;;;;;20.55;19.78;96308.69;5049900;28;20135;-67
2021/04/23 11:13:35;;;;;;;9.90;5.75;;;;;;;20.63;20.68;96309.00;5049896;28;20045;-69
2021/04/23 11:16:22;;;;;;;12.98;5.72;;;;;;;21.21;19.13;96307.72;5053878;28;20045;-69
2021/04/23 11:18:51;;;;;;;10.38;4.97;;;;;;;21.12;18.92;96301.63;5050275;28;20510;-69
2021/04/23 11:21:34;;;;;;;11.48;5.90;;;;;;;20.92;18.12;96311.88;5050505;28;20144;-69
2021/04/23 11:24:15;;;;;;;12.18;5.88;;;;;;;19.26;19.40;96303.41;5049917;28;20091;-69
2021/04/23 11:26:55;;;;;;;12.82;5.15;;;;;;;20.33;20.28;96306.97;5046093;28;20052;-69
2021/04/23 11:29:21;;;;;;;11.23;5.35;;;;;;;19.91;19.41;96301.19;5050565;28;20037;-69
2021/04/23 11:32:06;;;;;;;13.35;5.07;;;;;;;20.18;17.74;96305.50;5051371;28;20037;-69
2021/04/23 11:34:40;;;;;;;14.65;4.85;;;;;;;19.17;18.85;96300.69;5045313;28;20530;-69